createdAt,value
2022-09-21T00:01:43.140Z,100.00
2022-09-21T00:04:12.003Z,100.00
2022-09-21T00:06:40.753Z,100.00
2022-09-21T00:09:09.644Z,100.00
2022-09-21T00:11:38.776Z,100.00
2022-09-21T00:14:10.811Z,100.00
2022-09-21T00:16:44.491Z,100.00
2022-09-21T00:19:13.563Z,100.00
2022-09-21T00:21:42.484Z,100.00
2022-09-21T00:24:12.406Z,100.00
2022-09-21T00:26:41.118Z,100.00
2022-09-21T00:29:11.790Z,100.00
2022-09-21T00:31:40.873Z,100.00
2022-09-21T00:34:11.171Z,100.00
2022-09-21T00:36:39.897Z,100.00
2022-09-21T00:39:08.704Z,100.00
2022-09-21T00:41:40.617Z,100.00
2022-09-21T00:44:30.961Z,100.00
2022-09-21T00:47:05.609Z,100.00
2022-09-21T00:49:37.821Z,100.00
2022-09-21T00:52:08.545Z,100.00
2022-09-21T00:54:41.907Z,100.00
2022-09-21T00:57:11.510Z,100.00
2022-09-21T00:59:41.423Z,100.00
2022-09-21T01:02:10.381Z,100.00
2022-09-21T01:04:41.015Z,100.00
2022-09-21T01:07:15.569Z,100.00
2022-09-21T01:09:46.480Z,100.00
2022-09-21T01:12:30.560Z,100.00
2022-09-21T01:15:09.401Z,100.00
2022-09-21T01:17:46.362Z,100.00
2022-09-21T01:20:36.851Z,100.00
2022-09-21T01:23:25.792Z,100.00
2022-09-21T01:26:05.168Z,100.00
2022-09-21T01:28:51.830Z,100.00
2022-09-21T01:31:25.693Z,100.00
2022-09-21T01:33:59.363Z,100.00
2022-09-21T01:36:32.451Z,100.00
2022-09-21T01:39:07.900Z,100.00
2022-09-21T01:41:40.483Z,100.00
2022-09-21T01:44:14.447Z,100.00
2022-09-21T01:46:43.917Z,100.00
2022-09-21T01:49:16.329Z,100.00
2022-09-21T01:51:50.595Z,100.00
2022-09-21T01:54:24.174Z,100.00
2022-09-21T01:56:57.184Z,100.00
2022-09-21T01:59:34.136Z,100.00
2022-09-21T02:02:10.961Z,100.00
2022-09-21T02:04:41.438Z,100.00
2022-09-21T02:07:10.046Z,100.00
2022-09-21T02:09:39.115Z,100.00
2022-09-21T02:12:07.567Z,100.00
2022-09-21T02:14:38.956Z,100.00
2022-09-21T02:17:23.673Z,100.00
2022-09-21T02:19:58.910Z,100.00
2022-09-21T02:22:35.335Z,100.00
2022-09-21T02:25:10.439Z,100.00
2022-09-21T02:27:46.846Z,100.00
2022-09-21T02:30:20.314Z,100.00
2022-09-21T02:32:55.225Z,100.00
2022-09-21T02:35:32.526Z,100.00
2022-09-21T02:38:10.613Z,100.00
2022-09-21T02:40:44.642Z,100.00
2022-09-21T02:43:20.781Z,100.00
2022-09-21T02:45:55.550Z,100.00
2022-09-21T02:48:30.049Z,100.00
2022-09-21T02:51:02.287Z,100.00
2022-09-21T02:53:36.435Z,100.00
2022-09-21T02:56:07.416Z,100.00
2022-09-21T02:58:40.044Z,100.00
2022-09-21T03:01:12.701Z,100.00
2022-09-21T03:03:41.075Z,100.00
2022-09-21T03:06:09.570Z,100.00
2022-09-21T03:08:37.784Z,100.00
2022-09-21T03:11:06.296Z,100.00
2022-09-21T03:13:34.933Z,100.00
2022-09-21T03:16:05.271Z,100.00
2022-09-21T03:18:35.660Z,100.00
2022-09-21T03:21:04.673Z,100.00
2022-09-21T03:23:33.178Z,100.00
2022-09-21T03:26:01.614Z,100.00
2022-09-21T03:28:30.049Z,100.00
2022-09-21T03:31:01.540Z,100.00
2022-09-21T03:33:29.896Z,100.00
2022-09-21T03:35:59.856Z,100.00
2022-09-21T03:38:28.125Z,100.00
2022-09-21T03:40:58.013Z,100.00
2022-09-21T03:43:27.035Z,100.00
2022-09-21T03:45:55.376Z,100.00
2022-09-21T03:48:23.681Z,100.00
2022-09-21T03:50:52.527Z,100.00
2022-09-21T03:53:22.261Z,100.00
2022-09-21T03:55:50.974Z,100.00
2022-09-21T03:58:19.237Z,100.00
2022-09-21T04:00:49.968Z,100.00
2022-09-21T04:03:18.205Z,100.00
2022-09-21T04:05:46.527Z,100.00
2022-09-21T04:08:14.961Z,100.00
2022-09-21T04:10:44.726Z,100.00
2022-09-21T04:13:13.622Z,100.00
2022-09-21T04:15:42.052Z,100.00
2022-09-21T04:18:10.346Z,100.00
2022-09-21T04:20:38.682Z,100.00
2022-09-21T04:23:09.988Z,100.00
2022-09-21T04:25:38.625Z,100.00
2022-09-21T04:28:08.495Z,100.00
2022-09-21T04:30:37.908Z,100.00
2022-09-21T04:33:06.559Z,100.00
2022-09-21T04:35:34.976Z,100.00
2022-09-21T04:38:03.522Z,100.00
2022-09-21T04:40:31.904Z,100.00
2022-09-21T04:43:00.334Z,100.00
2022-09-21T04:45:30.092Z,100.00
2022-09-21T04:47:58.403Z,100.00
2022-09-21T04:50:26.709Z,100.00
2022-09-21T04:53:05.041Z,100.00
2022-09-21T04:55:33.487Z,100.00
2022-09-21T04:58:01.843Z,100.00
2022-09-21T05:00:31.942Z,100.00
2022-09-21T05:03:00.482Z,100.00
2022-09-21T05:05:28.932Z,100.00
2022-09-21T05:07:57.340Z,100.00
2022-09-21T05:10:24.925Z,100.00
2022-09-21T05:12:53.855Z,100.00
2022-09-21T05:15:22.555Z,100.00
2022-09-21T05:17:52.268Z,100.00
2022-09-21T05:20:20.655Z,100.00
2022-09-21T05:22:49.029Z,100.00
2022-09-21T05:25:17.617Z,100.00
2022-09-21T05:27:45.924Z,100.00
2022-09-21T05:30:15.641Z,100.00
2022-09-21T05:32:49.885Z,100.00
2022-09-21T05:35:30.560Z,100.00
2022-09-21T05:38:04.741Z,100.00
2022-09-21T05:40:34.067Z,100.00
2022-09-21T05:43:03.215Z,100.00
2022-09-21T05:45:32.314Z,100.00
2022-09-21T05:48:18.790Z,100.00
2022-09-21T05:50:58.218Z,100.00
2022-09-21T05:53:46.877Z,100.00
2022-09-21T05:56:25.666Z,100.00
2022-09-21T05:59:02.800Z,100.00
2022-09-21T06:01:41.869Z,100.00
2022-09-21T06:04:12.876Z,100.00
2022-09-21T06:06:42.688Z,100.00
2022-09-21T06:09:11.104Z,100.00
2022-09-21T06:11:39.492Z,100.00
2022-09-21T06:14:07.970Z,100.00
2022-09-21T06:16:40.237Z,100.00
2022-09-21T06:19:11.996Z,100.00
2022-09-21T06:21:40.453Z,100.00
2022-09-21T06:24:10.488Z,100.00
2022-09-21T06:26:38.990Z,100.00
2022-09-21T06:29:07.430Z,100.00
2022-09-21T06:31:36.699Z,100.00
2022-09-21T06:34:05.423Z,100.00
2022-09-21T06:36:33.927Z,100.00
2022-09-21T06:39:02.422Z,100.00
2022-09-21T06:41:32.178Z,100.00
2022-09-21T06:44:00.902Z,100.00
2022-09-21T06:46:29.312Z,100.00
2022-09-21T06:48:57.948Z,100.00
2022-09-21T06:51:26.492Z,100.00
2022-09-21T06:53:56.872Z,100.00
2022-09-21T06:56:25.785Z,100.00
2022-09-21T06:58:56.669Z,100.00
2022-09-21T07:01:25.655Z,100.00
2022-09-21T07:03:54.504Z,100.00
2022-09-21T07:06:23.545Z,100.00
2022-09-21T07:11:43.052Z,100.00
2022-09-21T07:14:12.883Z,100.00
2022-09-21T07:16:41.391Z,100.00
2022-09-21T07:19:11.803Z,100.00
2022-09-21T07:21:40.796Z,100.00
2022-09-21T07:24:12.473Z,100.00
2022-09-21T07:26:41.105Z,100.00
2022-09-21T07:29:09.662Z,100.00
2022-09-21T07:31:39.665Z,100.00
2022-09-21T07:34:08.201Z,100.00
2022-09-21T07:36:36.624Z,100.00
2022-09-21T07:39:07.695Z,100.00
2022-09-21T07:41:38.797Z,100.00
2022-09-21T07:44:07.434Z,100.00
2022-09-21T07:46:36.210Z,100.00
2022-09-21T07:49:06.540Z,100.00
2022-09-21T07:51:35.097Z,100.00
2022-09-21T07:54:05.120Z,100.00
2022-09-21T07:56:33.535Z,100.00
2022-09-21T07:59:07.324Z,100.00
2022-09-21T08:01:37.866Z,100.00
2022-09-21T08:04:09.192Z,100.00
2022-09-21T08:06:40.287Z,100.00
2022-09-21T08:09:09.675Z,100.00
2022-09-21T08:11:39.698Z,100.00
2022-09-21T08:14:08.324Z,100.00
2022-09-21T08:16:58.849Z,100.00
2022-09-21T08:19:30.103Z,100.00
2022-09-21T08:21:59.013Z,100.00
2022-09-21T08:24:27.758Z,100.00
2022-09-21T08:26:56.951Z,100.00
2022-09-21T08:29:25.934Z,100.00
2022-09-21T08:31:54.801Z,100.00
2022-09-21T08:34:24.130Z,100.00
2022-09-21T08:36:55.790Z,100.00
2022-09-21T08:39:24.792Z,100.00
2022-09-21T08:42:10.049Z,100.00
2022-09-21T08:44:43.103Z,100.00
2022-09-21T08:47:17.065Z,100.00
2022-09-21T08:49:52.475Z,100.00
2022-09-21T08:52:25.985Z,100.00
2022-09-21T08:54:59.269Z,100.00
2022-09-21T08:57:31.441Z,100.00
2022-09-21T09:00:01.357Z,100.00
2022-09-21T09:02:42.941Z,100.00
2022-09-21T09:05:29.426Z,100.00
2022-09-21T09:08:19.592Z,100.00
2022-09-21T09:11:04.390Z,100.00
2022-09-21T09:13:47.794Z,100.00
2022-09-21T09:16:24.346Z,100.00
2022-09-21T09:18:55.614Z,100.00
2022-09-21T09:21:32.415Z,100.00
2022-09-21T09:24:06.883Z,100.00
2022-09-21T09:26:42.863Z,100.00
2022-09-21T09:29:20.038Z,100.00
2022-09-21T09:31:51.427Z,100.00
2022-09-21T09:34:25.813Z,100.00
2022-09-21T09:36:59.902Z,100.00
2022-09-21T09:39:32.124Z,100.00
2022-09-21T09:42:24.020Z,100.00
2022-09-21T09:45:25.991Z,100.00
2022-09-21T09:48:08.034Z,100.00
2022-09-21T09:50:38.858Z,100.00
2022-09-21T09:53:12.252Z,100.00
2022-09-21T09:55:44.828Z,100.00
2022-09-21T09:58:19.992Z,100.00
2022-09-21T10:00:53.191Z,100.00
2022-09-21T10:03:24.332Z,100.00
2022-09-21T10:05:53.754Z,100.00
2022-09-21T10:08:32.430Z,100.00
2022-09-21T10:11:03.283Z,100.00
2022-09-21T10:13:34.856Z,100.00
2022-09-21T10:16:07.516Z,100.00
2022-09-21T10:18:42.399Z,100.00
2022-09-21T10:21:18.934Z,100.00
2022-09-21T10:23:50.537Z,100.00
2022-09-21T10:26:21.861Z,100.00
2022-09-21T10:28:58.579Z,100.00
2022-09-21T10:31:30.067Z,100.00
2022-09-21T10:34:08.796Z,100.00
2022-09-21T10:36:38.998Z,100.00
2022-09-21T10:39:29.871Z,100.00
2022-09-21T10:42:03.740Z,100.00
2022-09-21T10:44:42.241Z,100.00
2022-09-21T10:47:21.368Z,100.00
2022-09-21T10:49:52.341Z,100.00
2022-09-21T10:52:23.708Z,100.00
2022-09-21T10:54:55.891Z,100.00
2022-09-21T10:57:29.135Z,100.00
2022-09-21T10:59:57.864Z,100.00
2022-09-21T11:02:31.452Z,100.00
2022-09-21T11:05:06.239Z,99.57
2022-09-21T11:07:41.058Z,100.00
2022-09-21T11:10:17.707Z,100.00
2022-09-21T11:13:04.501Z,100.00
2022-09-21T11:15:43.252Z,96.79
2022-09-21T11:18:20.259Z,93.19
2022-09-21T11:20:52.532Z,96.76
2022-09-21T11:23:41.304Z,81.25
2022-09-21T11:26:16.217Z,87.96
2022-09-21T11:28:52.525Z,79.17
2022-09-21T11:31:53.189Z,79.80
2022-09-21T11:34:39.149Z,72.80
2022-09-21T11:37:22.277Z,75.45
2022-09-21T11:40:09.606Z,77.90
2022-09-21T11:42:53.231Z,72.02
2022-09-21T11:45:41.897Z,67.69
2022-09-21T11:48:21.533Z,71.39
2022-09-21T11:51:01.315Z,65.60
2022-09-21T11:53:46.779Z,65.84
2022-09-21T11:56:45.636Z,59.79
2022-09-21T11:59:44.121Z,63.53
2022-09-21T12:03:00.711Z,57.00
2022-09-21T12:05:34.145Z,62.28
2022-09-21T12:08:26.188Z,54.21
2022-09-21T12:11:04.309Z,50.73
2022-09-21T12:13:41.228Z,46.49
2022-09-21T12:16:20.310Z,44.86
2022-09-21T12:18:58.280Z,45.08
2022-09-21T12:21:31.379Z,46.90
2022-09-21T12:24:05.554Z,46.76
2022-09-21T12:26:40.398Z,48.03
2022-09-21T12:29:16.434Z,50.83
2022-09-21T12:32:01.115Z,52.43
2022-09-21T12:34:40.031Z,52.63
2022-09-21T12:37:13.574Z,57.88
2022-09-21T12:39:48.445Z,61.45
2022-09-21T12:42:31.831Z,57.58
2022-09-21T12:45:05.285Z,60.85
2022-09-21T12:47:46.618Z,63.70
2022-09-21T12:50:24.174Z,62.74
2022-09-21T12:52:53.783Z,63.87
2022-09-21T12:55:41.693Z,65.03
2022-09-21T12:58:17.706Z,70.27
2022-09-21T13:00:55.782Z,72.28
2022-09-21T13:03:33.246Z,70.35
2022-09-21T13:06:22.551Z,74.26
2022-09-21T13:08:51.973Z,74.60
2022-09-21T13:11:23.302Z,77.79
2022-09-21T13:13:55.550Z,78.92
2022-09-21T13:16:29.053Z,83.08
2022-09-21T13:19:00.136Z,85.81
2022-09-21T13:21:31.429Z,80.01
2022-09-21T13:24:02.513Z,80.25
2022-09-21T13:26:35.921Z,75.19
2022-09-21T13:29:26.226Z,75.02
2022-09-21T13:31:58.936Z,70.94
2022-09-21T13:34:37.820Z,60.90
2022-09-21T13:37:29.456Z,61.59
2022-09-21T13:40:41.270Z,56.55
2022-09-21T13:43:23.554Z,49.73
2022-09-21T13:45:57.892Z,52.92
2022-09-21T13:48:30.938Z,56.74
2022-09-21T13:51:10.286Z,49.48
2022-09-21T13:53:42.328Z,58.27
2022-09-21T13:56:20.379Z,56.88
2022-09-21T13:58:52.214Z,61.27
2022-09-21T14:04:21.659Z,56.29
2022-09-21T14:06:53.465Z,60.49
2022-09-21T14:09:28.511Z,59.59
2022-09-21T14:12:01.783Z,57.94
2022-09-21T14:14:37.322Z,59.73
2022-09-21T14:17:07.317Z,64.25
2022-09-21T14:20:02.264Z,58.56
2022-09-21T14:22:39.608Z,70.52
2022-09-21T14:25:32.855Z,82.13
2022-09-21T14:28:06.270Z,88.20
2022-09-21T14:30:37.182Z,92.87
2022-09-21T14:33:22.339Z,95.72
2022-09-21T14:35:53.183Z,100.00
2022-09-21T14:38:26.862Z,100.00
2022-09-21T14:41:02.641Z,95.15
2022-09-21T14:43:35.395Z,99.07
2022-09-21T14:46:40.539Z,100.00
2022-09-21T14:49:24.761Z,100.00
2022-09-21T14:52:12.711Z,100.00
2022-09-21T14:54:53.304Z,100.00
2022-09-21T14:57:37.431Z,100.00
2022-09-21T15:00:21.158Z,100.00
2022-09-21T15:02:55.399Z,100.00
2022-09-21T15:05:34.719Z,100.00
2022-09-21T15:09:02.924Z,100.00
2022-09-21T15:11:38.548Z,100.00
2022-09-21T15:14:18.312Z,100.00
2022-09-21T15:16:50.523Z,100.00
2022-09-21T15:19:27.350Z,100.00
2022-09-21T15:21:57.592Z,100.00
2022-09-21T15:24:29.619Z,100.00
2022-09-21T15:27:06.958Z,100.00
2022-09-21T15:29:40.434Z,100.00
2022-09-21T15:32:08.989Z,100.00
2022-09-21T15:34:39.893Z,100.00
2022-09-21T15:37:15.594Z,100.00
2022-09-21T15:39:47.990Z,100.00
2022-09-21T15:42:22.946Z,100.00
2022-09-21T15:45:11.458Z,100.00
2022-09-21T15:47:46.528Z,100.00
2022-09-21T15:50:20.251Z,100.00
2022-09-21T15:52:52.565Z,100.00
2022-09-21T15:55:23.138Z,100.00
2022-09-21T15:57:53.326Z,100.00
2022-09-21T16:00:27.089Z,100.00
2022-09-21T16:03:06.353Z,100.00
2022-09-21T16:05:45.384Z,100.00
2022-09-21T16:08:33.214Z,100.00
2022-09-21T16:11:35.426Z,100.00
2022-09-21T16:14:29.122Z,100.00
2022-09-21T16:17:24.794Z,100.00
2022-09-21T16:20:19.132Z,100.00
2022-09-21T16:22:49.825Z,100.00
2022-09-21T16:25:30.068Z,100.00
2022-09-21T16:28:00.358Z,100.00
2022-09-21T16:30:51.259Z,100.00
2022-09-21T16:34:01.619Z,100.00
2022-09-21T16:36:40.754Z,100.00
2022-09-21T16:39:17.546Z,100.00
2022-09-21T16:42:00.221Z,100.00
2022-09-21T16:44:31.626Z,100.00
2022-09-21T16:47:02.665Z,100.00
2022-09-21T16:49:35.836Z,100.00
2022-09-21T16:52:04.831Z,100.00
2022-09-21T16:54:34.765Z,100.00
2022-09-21T16:57:06.352Z,100.00
2022-09-21T16:59:36.637Z,100.00
2022-09-21T17:02:06.084Z,100.00
2022-09-21T17:04:37.019Z,100.00
2022-09-21T17:07:06.240Z,100.00
2022-09-21T17:09:38.642Z,100.00
2022-09-21T17:12:08.909Z,100.00
2022-09-21T17:14:41.870Z,100.00
2022-09-21T17:17:17.642Z,100.00
2022-09-21T17:19:50.145Z,100.00
2022-09-21T17:22:19.170Z,100.00
2022-09-21T17:24:51.763Z,100.00
2022-09-21T17:27:23.692Z,100.00
2022-09-21T17:29:55.396Z,100.00
2022-09-21T17:32:28.508Z,100.00
2022-09-21T17:35:02.177Z,100.00
2022-09-21T17:37:32.458Z,100.00
2022-09-21T17:40:01.050Z,100.00
2022-09-21T17:42:29.789Z,100.00
2022-09-21T17:45:14.405Z,100.00
2022-09-21T17:47:43.211Z,100.00
2022-09-21T17:50:31.685Z,100.00
2022-09-21T17:53:18.456Z,100.00
2022-09-21T17:55:54.582Z,100.00
2022-09-21T17:58:45.858Z,100.00
2022-09-21T18:01:23.979Z,100.00
2022-09-21T18:03:55.482Z,100.00
2022-09-21T18:06:26.060Z,100.00
2022-09-21T18:08:55.186Z,100.00
2022-09-21T18:11:47.431Z,100.00
2022-09-21T18:14:25.238Z,100.00
2022-09-21T18:17:05.828Z,100.00
2022-09-21T18:19:46.501Z,100.00
2022-09-21T18:22:29.006Z,100.00
2022-09-21T18:24:59.368Z,100.00
2022-09-21T18:27:28.523Z,100.00
2022-09-21T18:29:57.732Z,100.00
2022-09-21T18:32:39.821Z,100.00
2022-09-21T18:35:27.612Z,100.00
2022-09-21T18:38:14.754Z,100.00
2022-09-21T18:40:53.512Z,100.00
2022-09-21T18:43:30.909Z,100.00
2022-09-21T18:46:04.354Z,100.00
2022-09-21T18:48:50.787Z,100.00
2022-09-21T18:51:25.170Z,100.00
2022-09-21T18:53:57.177Z,100.00
2022-09-21T18:56:34.717Z,100.00
2022-09-21T18:59:04.089Z,100.00
2022-09-21T19:01:34.178Z,100.00
2022-09-21T19:04:03.441Z,100.00
2022-09-21T19:06:47.335Z,100.00
2022-09-21T19:09:34.582Z,100.00
2022-09-21T19:12:14.798Z,100.00
2022-09-21T19:14:55.031Z,100.00
2022-09-21T19:17:40.396Z,100.00
2022-09-21T19:20:27.117Z,100.00
2022-09-21T19:23:06.353Z,100.00
2022-09-21T19:25:48.662Z,100.00
2022-09-21T19:28:47.236Z,100.00
2022-09-21T19:31:18.950Z,100.00
2022-09-21T19:33:57.723Z,100.00
2022-09-21T19:36:26.388Z,100.00
2022-09-21T19:38:55.384Z,100.00
2022-09-21T19:41:39.356Z,100.00
2022-09-21T19:44:21.639Z,100.00
2022-09-21T19:46:59.949Z,100.00
2022-09-21T19:49:37.141Z,100.00
2022-09-21T19:52:07.052Z,100.00
2022-09-21T19:54:53.254Z,100.00
2022-09-21T19:57:41.225Z,100.00
2022-09-21T20:00:13.706Z,100.00
2022-09-21T20:02:51.932Z,100.00
2022-09-21T20:05:28.080Z,100.00
2022-09-21T20:08:04.538Z,100.00
2022-09-21T20:10:53.256Z,100.00
2022-09-21T20:13:32.260Z,100.00
2022-09-21T20:16:06.377Z,100.00
2022-09-21T20:18:41.921Z,100.00
2022-09-21T20:21:14.805Z,100.00
2022-09-21T20:23:43.689Z,100.00
2022-09-21T20:26:23.977Z,100.00
2022-09-21T20:28:55.199Z,100.00
2022-09-21T20:31:25.857Z,100.00
2022-09-21T20:33:54.472Z,100.00
2022-09-21T20:36:23.452Z,100.00
2022-09-21T20:38:52.879Z,100.00
2022-09-21T20:41:22.317Z,100.00
2022-09-21T20:43:50.711Z,100.00
2022-09-21T20:46:20.656Z,100.00
2022-09-21T20:49:00.357Z,100.00
2022-09-21T20:51:29.033Z,100.00
2022-09-21T20:53:57.575Z,100.00
2022-09-21T20:56:26.097Z,100.00
2022-09-21T20:58:54.686Z,100.00
2022-09-21T21:01:25.139Z,100.00
2022-09-21T21:03:53.808Z,100.00
2022-09-21T21:06:22.322Z,100.00
2022-09-21T21:08:50.814Z,100.00
2022-09-21T21:11:20.456Z,100.00
2022-09-21T21:13:48.974Z,100.00
2022-09-21T21:16:17.720Z,100.00
2022-09-21T21:18:47.654Z,100.00
2022-09-21T21:21:16.456Z,100.00
2022-09-21T21:24:02.270Z,100.00
2022-09-21T21:26:57.405Z,100.00
2022-09-21T21:29:19.153Z,100.00
2022-09-21T21:31:48.869Z,100.00
2022-09-21T21:34:18.772Z,100.00
2022-09-21T21:36:47.362Z,100.00
2022-09-21T21:39:15.843Z,100.00
2022-09-21T21:41:44.181Z,100.00
2022-09-21T21:44:12.716Z,100.00
2022-09-21T21:46:41.219Z,100.00
2022-09-21T21:49:09.765Z,100.00
2022-09-21T21:51:39.632Z,100.00
2022-09-21T21:54:08.598Z,100.00
2022-09-21T21:56:36.984Z,100.00
2022-09-21T21:59:05.861Z,100.00
2022-09-21T22:01:34.548Z,100.00
2022-09-21T22:04:03.897Z,100.00
2022-09-21T22:06:34.170Z,100.00
2022-09-21T22:09:05.599Z,100.00
2022-09-21T22:11:35.200Z,100.00
2022-09-21T22:14:04.761Z,100.00
2022-09-21T22:16:35.404Z,100.00
2022-09-21T22:19:05.275Z,100.00
2022-09-21T22:21:35.628Z,100.00
2022-09-21T22:24:07.248Z,100.00
2022-09-21T22:26:38.324Z,100.00
2022-09-21T22:29:08.166Z,100.00
2022-09-21T22:31:38.233Z,100.00
2022-09-21T22:34:07.653Z,100.00
2022-09-21T22:36:40.734Z,100.00
2022-09-21T22:39:10.745Z,100.00
2022-09-21T22:41:40.749Z,100.00
2022-09-21T22:44:10.191Z,100.00
2022-09-21T22:46:38.846Z,100.00
2022-09-21T22:49:07.807Z,100.00
2022-09-21T22:51:38.144Z,100.00
2022-09-21T22:54:07.325Z,100.00
2022-09-21T22:56:37.325Z,100.00
2022-09-21T22:59:06.428Z,100.00
2022-09-21T23:01:37.228Z,100.00
2022-09-21T23:04:07.705Z,100.00
2022-09-21T23:06:37.814Z,100.00
2022-09-21T23:09:09.222Z,100.00
2022-09-21T23:11:42.949Z,100.00
2022-09-21T23:14:12.965Z,100.00
2022-09-21T23:16:41.665Z,100.00
2022-09-21T23:19:15.753Z,100.00
2022-09-21T23:21:46.235Z,100.00
2022-09-21T23:24:16.932Z,100.00
2022-09-21T23:26:51.719Z,100.00
2022-09-21T23:29:20.334Z,100.00
2022-09-21T23:31:48.925Z,100.00
2022-09-21T23:34:17.774Z,100.00
2022-09-21T23:36:46.641Z,100.00
2022-09-21T23:39:16.674Z,100.00
2022-09-21T23:41:45.418Z,100.00
2022-09-21T23:44:15.149Z,100.00
2022-09-21T23:46:44.173Z,100.00
2022-09-21T23:49:12.746Z,100.00
2022-09-21T23:51:41.597Z,100.00
2022-09-21T23:54:10.117Z,100.00
2022-09-21T23:56:38.998Z,100.00
2022-09-21T23:59:07.312Z,100.00
